Aérodrome :
LOGIN :

S'inscrire | Disclaimer

   EN    FR    IT 

 










Légende :    VFR   VFR Marginal   IFR   IFR Intensif   IFR Très Intensif
Visi : 
Plafond : 
>= 8 km
>= 3000ft
5 à 8 km
1000 à 3000 ft
1500m à 5 km
500 à 1000 ft
800 à 1500m
200 à 500 ft
< 800m
< 200 ft
Symboles :   Orages  Brouillard  Fortes neiges  Fortes précipitations  Vent > 20 kt
SIGMETs :   Divers  Orages  Givrage  Turbulence  Onde Orograph.  Cendres Volcan.







- Altitude de l'aérodrome : 436 ft
- Code IATA : ANG
- Voir les cartes d'approche


LFBU - Angoulême Brie Champniers

DERNIER METAR :
  • 191230Z AUTO 25004KT 190V320 9999 FEW044 26/14 Q1017 NOSIG

METARs EXPIRÉS :
  • 191200Z AUTO 28004KT 230V360 9999 BKN042 BKN230 25/14 Q1017 NOSIG
  • 191130Z AUTO 22004KT 130V280 9999 OVC039 24/14 Q1017 NOSIG
  • 191100Z AUTO 24005KT 210V280 9999 OVC039 24/14 Q1017 NOSIG
  • 191030Z AUTO 23004KT 150V280 9999 SCT034 BKN041 24/15 Q1017 NOSIG
  • 191000Z AUTO 19006KT 120V250 9999 FEW034 BKN041 24/14 Q1018 NOSIG

TAF TAF LFBU
Valide du 19 à 12h jusqu'au 20 à 12h UTC


191100Z 1912/2012 23005KT CAVOK
TEMPO 2002/2006 -SHRA BKN080TCU
PROB30
TEMPO 2002/2006 VRB15G30KT 3000 TSRA BKN080CB
Pas de NOTAMs connus pour ce terrain.



MET'MAP, la Météo Aéronautique d'un coup d'oeil ! - Copyright ORBIFLY Décembre 2007 - Disclaimer

ORBIFLY MET'MAP TEAM :

Programmation & Développement : Alexandra Zaïnal
Conception & Développement : Baudouin d'Aumeries
Co-Programmation & Développement : Marc-Olivier Méhu
Soutien technique & logistique : Manuel Goepfert

Contact : metmap@orbifly.com




SOURCES & CREDITS :

   NOAA